Elyxir — WDJ3988 — position and weather

sailwx.info

Track history (hours):
 
Tides and Currents Weather Stations Pressure Air Temp Water Temp Dewpoint Dewpoint Depression Visibility Wind Speed Wind Dir Waves Ship Positions

Elyxir

Owner: Ely, Paul C, La Selva Beach, CA. More information available from US FCC via Universal Licensing System and Coast Guard Vessel Documentation Center.

Last reported at 2018-Jul-03 05:04 UTC. Time now 2018-Jul-23 15:21 UTC.
Position N 36°41' W 122°00'.
Warning: this ship's position is 20 days out of date.

Length 16 m.

Type: Sailing vessel. MMSI: 367165320.

Date/timePositionNaut miles runAvg speedWind from/ knotsBaromVisibWave heightAir tempDewpointWater temp
2018-Jul-03 05:04N 36°41' W 122°00'1 8.2
2018-Jul-03 04:54N 36°40' W 121°60'4 8.1
2018-Jul-03 04:21N 36°36' W 121°59'3 8.1
2018-Jul-03 03:58N 36°32' W 121°59'4 7.9
2018-Jul-03 03:30N 36°29' W 121°58'4 7.8
2018-Jul-03 03:00N 36°25' W 121°57'4 7.6
2018-Jul-03 02:30N 36°21' W 121°56'4 8.1
2018-Jul-03 01:59N 36°17' W 121°55'4 8.2
2018-Jul-03 01:30N 36°14' W 121°52'4 8.1
2018-Jul-03 01:00N 36°12' W 121°48'78 7.8
2018-Jul-02 15:06N 35°08' W 120°53'7 8.1
2018-Jul-02 14:17N 35°01' W 120°52'2 8.1
2018-Jul-02 14:00N 34°59' W 120°52'4 8.1
2018-Jul-02 13:29N 34°55' W 120°50'4 7.1
2018-Jul-02 13:00N 34°52' W 120°49'4 8.0
2018-Jul-02 12:30N 34°48' W 120°47'4 8.0
2018-Jul-02 12:00N 34°44' W 120°45'4 8.0
2018-Jul-02 11:26N 34°40' W 120°43'8 8.0
2018-Jul-02 10:24N 34°33' W 120°39'3 8.1
2018-Jul-02 10:00N 34°30' W 120°36'4 7.8
2018-Jul-02 09:30N 34°28' W 120°32'4 7.8
2018-Jul-02 09:00N 34°26' W 120°28'4 7.7
2018-Jul-02 08:30N 34°26' W 120°24'4 8.2
2018-Jul-02 08:00N 34°26' W 120°19'4 8.6
2018-Jul-02 07:29N 34°26' W 120°13'4 8.6
2018-Jul-02 07:00N 34°26' W 120°08'4 8.3
2018-Jul-02 06:29N 34°25' W 120°03'5 7.9
2018-Jul-02 05:47N 34°24' W 119°57'3 7.6
2018-Jul-02 05:24N 34°24' W 119°53'4 7.3
2018-Jul-02 04:53N 34°23' W 119°48'4 6.5
2018-Jul-02 04:17N 34°23' W 119°44'2 0.1
2018-Jun-30 18:16N 34°24' W 119°41'0 0.0
2018-Jun-30 17:58N 34°24' W 119°41'1 0.0
2018-Jun-30 00:02N 34°24' W 119°41'2 8.0
2018-Jun-29 23:43N 34°22' W 119°40'2 8.3
2018-Jun-29 23:29N 34°20' W 119°40'13 8.3
2018-Jun-29 21:57N 34°08' W 119°35'3 6.8
2018-Jun-29 21:31N 34°05' W 119°34'4 7.4
2018-Jun-29 21:00N 34°02' W 119°31'4 8.3
2018-Jun-29 20:31N 33°60' W 119°27'4 8.5
2018-Jun-29 20:00N 33°58' W 119°22'4 8.6
2018-Jun-29 19:31N 33°56' W 119°18'4 8.3
2018-Jun-29 19:00N 33°54' W 119°13'4 8.2
2018-Jun-29 18:31N 33°50' W 119°11'  
2018-Jun-26 18:40N 33°27' W 118°30'1 5.5
2018-Jun-26 18:27N 33°28' W 118°29'4 8.4
2018-Jun-26 17:58N 33°31' W 118°25'12 7.9
2018-Jun-26 16:30N 33°38' W 118°15'4 7.8
2018-Jun-26 16:00N 33°41' W 118°11'4 8.0
2018-Jun-26 15:29N 33°44' W 118°08'2 3.2
2018-Jun-26 15:00N 33°45' W 118°07'0 0.0
2018-Jun-26 14:24N 33°45' W 118°07'0 0.0
2018-Jun-26 04:34N 33°45' W 118°07'0 0.0
2018-Jun-26 04:25N 33°45' W 118°07'0 0.0
2018-Jun-26 03:58N 33°45' W 118°07'0 0.0
2018-Jun-26 03:22N 33°45' W 118°07'0 0.0
2018-Jun-26 02:40N 33°45' W 118°07'0 0.0
2018-Jun-26 02:28N 33°45' W 118°07'0 0.0
2018-Jun-26 01:58N 33°45' W 118°07'0 0.0
2018-Jun-26 01:22N 33°45' W 118°07'0 0.0
2018-Jun-26 00:49N 33°45' W 118°07'0 0.0
2018-Jun-26 00:22N 33°45' W 118°07'0 0.0
2018-Jun-25 23:58N 33°45' W 118°07'0 0.3
2018-Jun-25 23:26N 33°45' W 118°07'0 0.4
2018-Jun-25 22:59N 33°45' W 118°07'0 0.0
2018-Jun-25 22:29N 33°45' W 118°07'0 0.0
2018-Jun-25 21:59N 33°45' W 118°07'0 0.0
2018-Jun-25 21:29N 33°45' W 118°07'0 0.0
2018-Jun-25 20:47N 33°45' W 118°07'0 0.0
2018-Jun-25 20:23N 33°45' W 118°07'0 0.0
2018-Jun-25 19:56N 33°45' W 118°07'0 0.0
2018-Jun-25 01:06N 33°45' W 118°07'0 0.0
2018-Jun-25 00:51N 33°45' W 118°07'0 0.0
2018-Jun-25 00:30N 33°45' W 118°07'0 0.0
2018-Jun-24 23:48N 33°45' W 118°07'0 0.0
2018-Jun-24 23:30N 33°45' W 118°07'0 0.0
2018-Jun-24 22:45N 33°45' W 118°07'0 0.0
2018-Jun-24 22:21N 33°45' W 118°07'0 0.0
2018-Jun-24 22:00N 33°45' W 118°07'1 1.1
2018-Jun-24 21:28N 33°45' W 118°07'2 4.6
2018-Jun-24 21:00N 33°45' W 118°10'4 8.4
2018-Jun-24 20:30N 33°43' W 118°14'2 3.2
2018-Jun-24 20:00N 33°42' W 118°16'4 8.4
2018-Jun-24 19:30N 33°44' W 118°11'2 4.3
2018-Jun-24 18:58N 33°45' W 118°09'1 1.9
2018-Jun-24 18:30N 33°45' W 118°10'2 4.4
2018-Jun-24 18:00N 33°44' W 118°07'1 2.0
2018-Jun-24 17:30N 33°45' W 118°07'0 0.0
2018-Jun-24 00:13N 33°45' W 118°07'0 0.0
2018-Jun-23 23:55N 33°45' W 118°07'0 0.0
2018-Jun-23 23:28N 33°45' W 118°07'0 0.0
2018-Jun-23 22:49N 33°45' W 118°07'0 0.0
2018-Jun-23 22:25N 33°45' W 118°07'0 0.0
2018-Jun-23 21:49N 33°45' W 118°07'1 3.0
2018-Jun-23 21:29N 33°44' W 118°07'3 6.2
2018-Jun-23 21:00N 33°43' W 118°11'0 0.6
2018-Jun-23 20:27N 33°44' W 118°11'3 6.1
2018-Jun-23 20:00N 33°45' W 118°08'2 4.8
2018-Jun-23 19:30N 33°43' W 118°10'2 3.3
2018-Jun-23 18:59N 33°45' W 118°09'0 0.9
2018-Jun-23 18:30N 33°44' W 118°09'2 3.4
2018-Jun-23 17:59N 33°45' W 118°07'  
Track history (hours):
 
Tides and Currents Weather Stations Pressure Air Temp Water Temp Dewpoint Dewpoint Depression Visibility Wind Speed Wind Dir Waves Ship Positions

Elyxir

Owner: Ely, Paul C, La Selva Beach, CA. More information available from US FCC via Universal Licensing System and Coast Guard Vessel Documentation Center.

Last reported at 2018-Jul-03 05:04 UTC. Time now 2018-Jul-23 15:21 UTC.
Position N 36°41' W 122°00'.
Warning: this ship's position is 20 days out of date.

Length 16 m.

Type: Sailing vessel. MMSI: 367165320.

Date/timePositionNaut miles runAvg speedWind from/ knotsBaromVisibWave heightAir tempDewpointWater temp
2018-Jul-03 05:04N 36°41' W 122°00'1 8.2
2018-Jul-03 04:54N 36°40' W 121°60'4 8.1
2018-Jul-03 04:21N 36°36' W 121°59'3 8.1
2018-Jul-03 03:58N 36°32' W 121°59'4 7.9
2018-Jul-03 03:30N 36°29' W 121°58'4 7.8
2018-Jul-03 03:00N 36°25' W 121°57'4 7.6
2018-Jul-03 02:30N 36°21' W 121°56'4 8.1
2018-Jul-03 01:59N 36°17' W 121°55'4 8.2
2018-Jul-03 01:30N 36°14' W 121°52'4 8.1
2018-Jul-03 01:00N 36°12' W 121°48'78 7.8
2018-Jul-02 15:06N 35°08' W 120°53'7 8.1
2018-Jul-02 14:17N 35°01' W 120°52'2 8.1
2018-Jul-02 14:00N 34°59' W 120°52'4 8.1
2018-Jul-02 13:29N 34°55' W 120°50'4 7.1
2018-Jul-02 13:00N 34°52' W 120°49'4 8.0
2018-Jul-02 12:30N 34°48' W 120°47'4 8.0
2018-Jul-02 12:00N 34°44' W 120°45'4 8.0
2018-Jul-02 11:26N 34°40' W 120°43'8 8.0
2018-Jul-02 10:24N 34°33' W 120°39'3 8.1
2018-Jul-02 10:00N 34°30' W 120°36'4 7.8
2018-Jul-02 09:30N 34°28' W 120°32'4 7.8
2018-Jul-02 09:00N 34°26' W 120°28'4 7.7
2018-Jul-02 08:30N 34°26' W 120°24'4 8.2
2018-Jul-02 08:00N 34°26' W 120°19'4 8.6
2018-Jul-02 07:29N 34°26' W 120°13'4 8.6
2018-Jul-02 07:00N 34°26' W 120°08'4 8.3
2018-Jul-02 06:29N 34°25' W 120°03'5 7.9
2018-Jul-02 05:47N 34°24' W 119°57'3 7.6
2018-Jul-02 05:24N 34°24' W 119°53'4 7.3
2018-Jul-02 04:53N 34°23' W 119°48'4 6.5
2018-Jul-02 04:17N 34°23' W 119°44'2 0.1
2018-Jun-30 18:16N 34°24' W 119°41'0 0.0
2018-Jun-30 17:58N 34°24' W 119°41'1 0.0
2018-Jun-30 00:02N 34°24' W 119°41'2 8.0
2018-Jun-29 23:43N 34°22' W 119°40'2 8.3
2018-Jun-29 23:29N 34°20' W 119°40'13 8.3
2018-Jun-29 21:57N 34°08' W 119°35'3 6.8
2018-Jun-29 21:31N 34°05' W 119°34'4 7.4
2018-Jun-29 21:00N 34°02' W 119°31'4 8.3
2018-Jun-29 20:31N 33°60' W 119°27'4 8.5
2018-Jun-29 20:00N 33°58' W 119°22'4 8.6
2018-Jun-29 19:31N 33°56' W 119°18'4 8.3
2018-Jun-29 19:00N 33°54' W 119°13'4 8.2
2018-Jun-29 18:31N 33°50' W 119°11'  
2018-Jun-26 18:40N 33°27' W 118°30'1 5.5
2018-Jun-26 18:27N 33°28' W 118°29'4 8.4
2018-Jun-26 17:58N 33°31' W 118°25'12 7.9
2018-Jun-26 16:30N 33°38' W 118°15'4 7.8
2018-Jun-26 16:00N 33°41' W 118°11'4 8.0
2018-Jun-26 15:29N 33°44' W 118°08'2 3.2
2018-Jun-26 15:00N 33°45' W 118°07'0 0.0
2018-Jun-26 14:24N 33°45' W 118°07'0 0.0
2018-Jun-26 04:34N 33°45' W 118°07'0 0.0
2018-Jun-26 04:25N 33°45' W 118°07'0 0.0
2018-Jun-26 03:58N 33°45' W 118°07'0 0.0
2018-Jun-26 03:22N 33°45' W 118°07'0 0.0
2018-Jun-26 02:40N 33°45' W 118°07'0 0.0
2018-Jun-26 02:28N 33°45' W 118°07'0 0.0
2018-Jun-26 01:58N 33°45' W 118°07'0 0.0
2018-Jun-26 01:22N 33°45' W 118°07'0 0.0
2018-Jun-26 00:49N 33°45' W 118°07'0 0.0
2018-Jun-26 00:22N 33°45' W 118°07'0 0.0
2018-Jun-25 23:58N 33°45' W 118°07'0 0.3
2018-Jun-25 23:26N 33°45' W 118°07'0 0.4
2018-Jun-25 22:59N 33°45' W 118°07'0 0.0
2018-Jun-25 22:29N 33°45' W 118°07'0 0.0
2018-Jun-25 21:59N 33°45' W 118°07'0 0.0
2018-Jun-25 21:29N 33°45' W 118°07'0 0.0
2018-Jun-25 20:47N 33°45' W 118°07'0 0.0
2018-Jun-25 20:23N 33°45' W 118°07'0 0.0
2018-Jun-25 19:56N 33°45' W 118°07'0 0.0
2018-Jun-25 01:06N 33°45' W 118°07'0 0.0
2018-Jun-25 00:51N 33°45' W 118°07'0 0.0
2018-Jun-25 00:30N 33°45' W 118°07'0 0.0
2018-Jun-24 23:48N 33°45' W 118°07'0 0.0
2018-Jun-24 23:30N 33°45' W 118°07'0 0.0
2018-Jun-24 22:45N 33°45' W 118°07'0 0.0
2018-Jun-24 22:21N 33°45' W 118°07'0 0.0
2018-Jun-24 22:00N 33°45' W 118°07'1 1.1
2018-Jun-24 21:28N 33°45' W 118°07'2 4.6
2018-Jun-24 21:00N 33°45' W 118°10'4 8.4
2018-Jun-24 20:30N 33°43' W 118°14'2 3.2
2018-Jun-24 20:00N 33°42' W 118°16'4 8.4
2018-Jun-24 19:30N 33°44' W 118°11'2 4.3
2018-Jun-24 18:58N 33°45' W 118°09'1 1.9
2018-Jun-24 18:30N 33°45' W 118°10'2 4.4
2018-Jun-24 18:00N 33°44' W 118°07'1 2.0
2018-Jun-24 17:30N 33°45' W 118°07'0 0.0
2018-Jun-24 00:13N 33°45' W 118°07'0 0.0
2018-Jun-23 23:55N 33°45' W 118°07'0 0.0
2018-Jun-23 23:28N 33°45' W 118°07'0 0.0
2018-Jun-23 22:49N 33°45' W 118°07'0 0.0
2018-Jun-23 22:25N 33°45' W 118°07'0 0.0
2018-Jun-23 21:49N 33°45' W 118°07'1 3.0
2018-Jun-23 21:29N 33°44' W 118°07'3 6.2
2018-Jun-23 21:00N 33°43' W 118°11'0 0.6
2018-Jun-23 20:27N 33°44' W 118°11'3 6.1
2018-Jun-23 20:00N 33°45' W 118°08'2 4.8
2018-Jun-23 19:30N 33°43' W 118°10'2 3.3
2018-Jun-23 18:59N 33°45' W 118°09'0 0.9
2018-Jun-23 18:30N 33°44' W 118°09'2 3.4
2018-Jun-23 17:59N 33°45' W 118°07'  

Dump ship's entire track history